Valley Home, California
Current Conditions -  °F | °C
As of 8:53 AM on Saturday 25 Oct 2014 (Local Time) from KMOD Reporting Station
Broken Clouds Broken Clouds  
Wind Chill: 61°   Ceiling: 6000
Heat Index: 61°   Visibility: 10mi
Dew Point: 52°   Wind: 0mph
Humidity: 72%   Direction: NA
Pressure: 30.01"   Gusts: NA
Location:  37.7848°N, 120.772°W
Report Text: KMOD 251553Z 00000KT 10SM BKN060 BKN080 16/11 A3001 RMK AO2 SLP164 T01610111
Loading
Personal Weather Stations






























Interactive Weather Map
Tropical Storm Tracking
New forecast layout! Learn more

10-Day Weather Forecast

Advertisements
Track Severe Weather on mobile